METAR Data
IDs: Format: Raw Decoded Include TAF

Data at: 2034 UTC 19 May 2019

KDBQ 191953Z 26015G24KT 10SM OVC021 14/11 A2965 RMK AO2 PK WND 29028/1927 SLP038 T01440106
KDBQ 191853Z 26018G25KT 10SM OVC017 14/11 A2963 RMK AO2 PK WND 26026/1831 SLP029 T01440106
KDBQ 191753Z 26020G26KT 10SM OVC015 14/11 A2961 RMK AO2 PK WND 25027/1738 SLP027 60002 T01390106 10178 20122 51017
KDBQ 191748Z 26019G25KT 10SM OVC015 14/11 A2961 RMK AO2 PK WND 25027/1738
KDBQ 191653Z 25021G26KT 10SM OVC011 14/11 A2958 RMK AO2 PK WND 25027/1559 SLP016 T01390111
KDBQ 191631Z 25015KT 10SM OVC011 13/11 A2958 RMK AO2 PK WND 25027/1559 LTG DSNT E CIG 007V016 T01280106
KDBQ 191553Z 25017G27KT 10SM OVC009 13/11 A2956 RMK AO2 PK WND 24029/1459 LTG DSNT NE-SE RAB21E46 SLP009 P0000 T01280111
KDBQ 191500Z 24020G29KT 9SM VCTS BKN009 BKN020 OVC025 16/14 A2952 RMK AO2 PK WND 24029/1459 LTG DSNT S T01610144
KDBQ 191453Z 25020G24KT 10SM SCT005 BKN009 OVC015 16/14 A2952 RMK AO2 LTG DSNT E AND S SLP993 60002 T01610144 55002
KDBQ 191434Z 21013KT 10SM BKN010 BKN016 OVC023 18/16 A2951 RMK AO2 LTG DSNT E AND SE LTG DSNT SE AND S T01780156
KDBQ 191400Z COR 19017KT 10SM BKN010 BKN016 OVC023 17/16 A2951 RMK LTG DSNT SE AND S AO2 T01720156
KDBQ 191353Z 19016KT 10SM BKN007 BKN015 BKN090 17/16 A2951 RMK AO2 SLP990 T01720156
KDBQ 191320Z 18015G24KT 10SM BKN007 BKN015 BKN090 17/16 A2951 RMK AO2 T01720156
KDBQ 191313Z 18013G22KT 10SM SCT009 BKN015 BKN090 17/16 A2951 RMK AO2 T01720161
KDBQ 191306Z 19016KT 10SM SCT009 BKN013 17/16 A2951 RMK AO2 T01720161
KDBQ 191253Z 19017G23KT 10SM BKN007 BKN012 OVC090 17/16 A2950 RMK AO2 RAB09E33 SLP987 P0002 T01670156
KDBQ 191153Z 19013KT 9SM OVC009 17/16 A2952 RMK AO2 RAB41E52 CIG 007V012 SLP994 P0000 60000 70072 T01670156 10183 20167 55003
KDBQ 191135Z 19013KT 7SM BKN009 OVC013 17/16 A2953 RMK AO2 T01670156
KDBQ 191126Z 19012G20KT 2 1/2SM BR BKN009 OVC013 17/16 A2952 RMK AO2 T01670156
KDBQ 191100Z 18013KT 9SM BKN009 BKN014 OVC034 17/16 A2953 RMK AO2 CIG 007V011 T01670156
KDBQ 191053Z AUTO 18012KT 9SM SCT009 BKN022 OVC032 17/16 A2952 RMK AO2 SLP993 T01670156
KDBQ 191040Z AUTO 19012KT 10SM FEW007 OVC031 17/16 A2952 RMK AO2 T01670156
KDBQ 191027Z AUTO 19013KT 10SM SCT007 OVC029 17/16 A2952 RMK AO2 T01670156
KDBQ 191002Z AUTO 19011KT 9SM BKN008 OVC012 17/16 A2952 RMK AO2 CIG 005V011 T01670161
KDBQ 190953Z AUTO 19011KT 8SM BKN010 OVC024 17/16 A2952 RMK AO2 CIG 006V014 SLP993 T01670161
KDBQ 190929Z AUTO 18012KT 4SM BR BKN010 OVC018 17/16 A2953 RMK AO2 T01720161
KDBQ 190853Z AUTO 18011KT 10SM BKN017 OVC022 17/16 A2953 RMK AO2 SLP996 T01720161 58011
KDBQ 190839Z AUTO 19011KT 10SM FEW013 OVC022 17/16 A2954 RMK AO2 T01720161
KDBQ 190828Z AUTO 19012KT 10SM BKN014 OVC022 17/16 A2954 RMK AO2 T01720161
KDBQ 190753Z AUTO 18011KT 10SM BKN018 18/16 A2954 RMK AO2 SLP999 T01780156
KDBQ 190746Z AUTO 17010KT 10SM BKN018 18/16 A2954 RMK AO2 T01780156
KDBQ 190653Z AUTO 13008KT 10SM SCT065 BKN095 18/16 A2956 RMK AO2 SLP007 T01830161
KDBQ 190553Z AUTO 10009KT 10SM OVC080 18/17 A2957 RMK AO2 RAE11 SLP008 P0000 60026 T01780167 10206 20178 402220083 58021
KDBQ 190453Z AUTO 10006KT 7SM -RA BKN070 OVC095 18/17 A2960 RMK AO2 RAB13 SLP020 P0002 T01830172
KDBQ 190353Z AUTO 05005KT 7SM SCT007 BKN047 OVC085 18/18 A2963 RMK AO2 SLP032 T01830178
KDBQ 190339Z AUTO 06010KT 10SM BKN007 BKN065 OVC085 19/18 A2963 RMK AO2 CIG 005V011 T01890178
KDBQ 190324Z AUTO 32009KT 10SM SCT007 BKN070 OVC120 18/17 A2964 RMK AO2 T01780172
KDBQ 190253Z AUTO 07005KT 10SM FEW024 SCT055 BKN100 18/17 A2963 RMK AO2 LTG DSNT NW RAE47 SLP032 P0012 60024 T01830172 58014
KDBQ 190153Z AUTO 16004KT 7SM -RA FEW055 FEW070 OVC100 18/17 A2966 RMK AO2 LTG DSNT NW RAE25B49 SLP041 P0004 T01830172
KDBQ 190120Z AUTO 24005KT 8SM -RA OVC100 18/18 A2965 RMK AO2 P0004 T01830178
KDBQ 190105Z AUTO 22007KT 6SM VCTS -RA BR OVC100 19/18 A2966 RMK AO2 LTG DSNT SW AND W P0002 T01890178
KDBQ 190053Z 20010KT 7SM -RA OVC100 19/18 A2967 RMK AO2 RAB19 SLP045 P0008 T01940178
KDBQ 190049Z 20010KT 6SM -RA BR FEW020 OVC100 19/18 A2967 RMK AO2 RAB19 P0007
KDBQ 190034Z 19010KT 4SM VCTS RA BR SCT021 OVC095 19/18 A2967 RMK AO2 LTG DSNT SW AND W RAB19 P0002 T01940183
KDBQ 182353Z 18009KT 10SM FEW024 21/18 A2966 RMK AO2 LTG DSNT S SLP042 T02060183 10222 20178 58009
KDBQ 182253Z 18014G21KT 10SM SCT018 SCT023 SCT090 21/18 A2967 RMK AO2 SLP045 T02110183
KDBQ 182153Z 20018G27KT 10SM BKN021 22/18 A2968 RMK AO2 PK WND 20027/2143 SLP049 T02220178
KDBQ 182053Z 18017KT 10SM FEW017 BKN022 BKN029 22/18 A2969 RMK AO2 PK WND 18027/2018 SLP051 T02220183 53002
KDBQ 182000Z 17016KT 10SM BKN015 OVC021 21/18 A2968 RMK AO2 T02110183
KDBQ 181953Z 18017KT 10SM OVC009 21/18 A2968 RMK AO2 SLP048 T02110183
KDBQ 181919Z 19012KT 8SM OVC009 21/18 A2967 RMK AO2 T02060178
KDBQ 181915Z 19012KT 7SM BKN011 OVC014 20/17 A2967 RMK AO2 CIG 008V012 T02000172 $
KDBQ 181853Z 18011KT 6SM BR OVC008 19/17 A2966 RMK AO2 SLP043 T01940172 $
KDBQ 181805Z 17014G22KT 5SM BR BKN007 18/17 A2968 RMK AO2 T01830167 $
KDBQ 181753Z 16015KT 6SM BR SCT007 18/16 A2968 RMK AO2 SLP049 60046 T01830161 10183 20089 56030 $
KDBQ 181731Z 14013KT 5SM BR SCT007 16/15 A2968 RMK AO2 T01610150 $
KDBQ 181712Z 13014KT 6SM BR BKN007 14/13 A2968 RMK AO2 T01440133 $
KDBQ 181653Z 12017G23KT 7SM FEW009 SCT028 BKN070 14/13 A2969 RMK AO2 RAE44 SLP053 P0002 T01440128 $
KDBQ 181620Z 12010KT 5SM -RA BR FEW009 BKN080 OVC120 13/12 A2973 RMK AO2 P0002 T01280117 $
KDBQ 181605Z 11008KT 5SM -RA BR FEW010 BKN055 OVC110 13/12 A2975 RMK AO2 LTG DNST NE MOV NE P0001 T01280117 $
KDBQ 181553Z 12005KT 4SM -RA BR FEW011 BKN025 OVC070 12/12 A2976 RMK AO2 LTG DSNT NE AND E RAE22B47 TSE22 SLP078 LTG DNST N MOV NE P0020 T01220117 $
KDBQ 181531Z 16008KT 7SM FEW010 BKN020 OVC033 12/11 A2977 RMK AO2 LTG DSNT NE-S RAE22 TSE22 LTG DNST N MOV NE P0019 T01220111 $
KDBQ 181523Z 17007KT 7SM SCT017 BKN031 OVC110 12/11 A2977 RMK AO2 LTG DSNT NE-S RAE22 TSE22 TS MOV N OCNL LTG IC CCCG P0019 T01220111 $
KDBQ 181514Z 15007G24KT 2SM R36/2800VP6000FT TSRA BR BKN035 BKN055 OVC110 12/11 A2975 RMK AO2 LTG DSNT ALQDS TS MOV N OCNL LTG IC CCCG P0019 T01220111 $
KDBQ 181509Z 11020G24KT 3/4SM R36/2600VP6000FT +TSRA BR BKN036 OVC055 12/11 A2971 RMK AO2 LTG DSNT ALQDS PRESFR TS MOV N OCNL LTG IC CCCG P0017 T01170106 $
KDBQ 181453Z 13006KT 4SM -TSRA BR BKN040 OVC055 12/11 A2977 RMK AO2 LTG DSNT ALQDS RAB14 TSB12E45B51 SLP083 LTG DNST ALQDS MOV NE P0024 60024 T01220106 55001
KDBQ 181449Z 12005KT 3SM -RA BR BKN038 OVC050 12/11 A2977 RMK AO2 LTG DSNT ALQDS RAB14 TSB12E45 LTG DNST ALQDS MOV NE P0024
KDBQ 181445Z 12007KT 2SM VCTS -RA BR SCT038 OVC050 12/11 A2977 RMK AO2 LTG DSNT ALQDS RAB14 TSB12E45 TS MOV N OCNL LTG IC CCCG P0023 T01220106
KDBQ 181439Z 14006KT 1 1/2SM TSRA BR BKN040 OVC050 12/11 A2978 RMK AO2 LTG DSNT ALQDS RAB14 TSB12 TS MOV N OCNL LTG IC CCCG P0022 T01220106
KDBQ 181424Z 00000KT 3/4SM R36/4000VP6000FT +TSRA BR FEW028 BKN043 OVC060 12/10 A2979 RMK AO2 LTG DSNT ALQDS RAB14 TSB12 TS MOV N OCNL LTG IC CCCG P0010 T01220100
KDBQ 181418Z 25010KT 2 1/2SM +TSRA SCT042 SCT050 OVC060 13/10 A2980 RMK AO2 LTG DSNT ALQDS RAB14 TSB12 PRESRR TS MOV N OCNL LTG IC CCCG P0002 T01330100
KDBQ 181406Z VRB04KT 10SM VCTS BKN060 14/09 A2974 RMK AO2 LTG DSNT SW-NW VCTS MOV N OCNL LTG IC CCCG T01390089
KDBQ 181353Z VRB04G18KT 10SM SCT060 SCT085 14/09 A2974 RMK AO2 LTG DSNT SW-NW SLP069 T01440089
KDBQ 181253Z 12009KT 10SM CLR 11/06 A2976 RMK AO2 SLP077 T01110061
KDBQ 181153Z 11008KT 10SM SCT070 09/04 A2978 RMK AO2 SLP084 70003 T00890039 10100 20083 58015
KDBQ 181053Z 10009KT 10SM BKN075 08/03 A2979 RMK AO2 SLP090 T00830033
KDBQ 180953Z AUTO 08010KT 10SM SCT080 08/03 A2981 RMK AO2 SLP097 T00830028
KDBQ 180853Z AUTO 08009KT 10SM FEW060 BKN080 09/02 A2982 RMK AO2 SLP100 T00890022 56006